• Join FlightAware (Why Join?)
  • Login
  • US Flag 
03:13PM EDT


 

Airport Tracker/Info


-or-


 

Live Flight TrackerFlight Track Log ✈ SKW6492 ✈ 22-Oct-2013 ✈ KDEN - KCOD

Flight Track Log - Related Links

Times and Time Zones

All times are in EDT time to prevent confusion due to time zone crossing. See the SKW6492 flight status page for this flight to view local times or setup timezone preferences in your user account.

Time Position Orientation Groundspeed Altitude Reporting Facility
EDT Latitude Longitude Course Direction KTS MPH feet Rate Location/Type
10:50PM 39.8833 -104.6000 346° North 161 185 6,400  Level Denver TRACON
10:51PM 39.8833 -104.5333 90° East 232 267 7,900 1,680 Climbing Denver TRACON
10:52PM 39.9167 -104.4333 66° East 281 323 9,800 2,100 Climbing Denver TRACON
10:53PM 40.2057 -104.9687 346° North  Level Estimated
10:53PM 39.9833 -104.3833 30° Northeast 296 341 12,100  Level Denver TRACON
10:54PM 40.2916 -105.0431 348° North  Level Estimated
10:54PM 40.0500 -104.4167 339° North 286 329 14,500  Level Denver TRACON
10:55PM 40.3775 -105.1176 346° North  Level Estimated
10:55PM 40.1633 -104.4792 337° Northwest 288 331 17,700  Level Denver Center
10:56PM 40.2397 -104.5350 331° Northwest 294 338 19,300 1,560 Climbing Denver Center
10:57PM 40.3064 -104.6008 323° Northwest 299 344 20,900 1,440 Climbing Denver Center
10:58PM 40.3778 -104.6681 324° Northwest 314 361 22,300 1,380 Climbing Denver Center
11:00PM 40.4542 -104.7428 323° Northwest 317 365 23,800 1,320 Climbing Denver Center
11:01PM 40.5256 -104.8128 323° Northwest 321 369 25,100 1,080 Climbing Denver Center
11:02PM 40.5994 -104.8847 324° Northwest 331 381 26,100 960 Climbing Denver Center
11:03PM 40.6750 -104.9583 324° Northwest 337 388 27,100 960 Climbing Denver Center
11:04PM 40.7517 -105.0336 323° Northwest 342 394 28,100 900 Climbing Denver Center
11:05PM 40.8286 -105.1058 325° Northwest 340 391 29,000 780 Climbing Denver Center
11:06PM 40.9067 -105.1819 324° Northwest 350 403 29,800 720 Climbing Denver Center
11:07PM 40.9864 -105.2608 323° Northwest 357 411 30,500 660 Climbing Denver Center
11:08PM 41.0775 -105.3536 323° Northwest 365 420 31,200 540 Climbing Denver Center
11:09PM 41.1561 -105.4300 324° Northwest 365 420 31,700 360 Climbing Denver Center
11:10PM 41.2486 -105.5219 323° Northwest 372 428 32,000 120 Climbing Denver Center
11:11PM 41.3319 -105.6069 323° Northwest 387 445 32,000  Level Denver Center
11:12PM 41.4164 -105.6919 323° Northwest 395 455 32,000  Level Denver Center
11:13PM 41.5181 -105.7933 323° Northwest 406 467 32,000  Level Denver Center
11:14PM 41.6044 -105.8800 323° Northwest 405 466 32,000  Level Denver Center
11:15PM 41.7036 -105.9814 323° Northwest 403 464 32,000  Level Denver Center
11:16PM 41.7906 -106.0686 323° Northwest 404 465 32,000  Level Denver Center
11:17PM 41.8747 -106.1556 322° Northwest 401 461 32,000  Level Denver Center
11:18PM 41.9747 -106.2589 322° Northwest 402 463 32,000  Level Denver Center
11:19PM 42.0611 -106.3464 323° Northwest 404 465 32,000  Level Denver Center
11:20PM 42.1433 -106.4336 322° Northwest 397 457 32,000  Level Denver Center
11:21PM 42.2356 -106.5292 323° Northwest 402 463 32,000  Level Denver Center
11:22PM 42.3361 -106.6331 323° Northwest 407 468 32,000  Level Denver Center
11:23PM 42.4150 -106.7172 322° Northwest 406 467 32,000  Level Denver Center
11:24PM 42.5153 -106.8214 323° Northwest 406 467 32,000  Level Denver Center
11:25PM 42.6053 -106.9158 322° Northwest 404 465 32,000  Level Denver Center
11:26PM 42.6994 -107.0172 322° Northwest 406 467 32,000  Level Denver Center
11:27PM 42.7847 -107.1058 323° Northwest 402 463 32,000  Level Denver Center
11:28PM 42.8703 -107.1964 322° Northwest 405 466 32,000  Level Denver Center
11:29PM 42.9414 -107.2758 321° Northwest 400 460 32,000  Level Salt Lake Center
11:30PM 43.0508 -107.3825 325° Northwest 403 464 32,000  Level Salt Lake Center
11:31PM 43.1467 -107.4614 329° Northwest 403 464 32,000  Level Salt Lake Center
11:32PM 43.2436 -107.5408 329° Northwest 405 466 32,000  Level Salt Lake Center
11:33PM 43.3400 -107.6228 328° Northwest 407 468 32,000  Level Salt Lake Center
11:34PM 43.4358 -107.7047 328° Northwest 408 470 32,000  Level Salt Lake Center
11:35PM 43.5333 -107.7847 329° Northwest 408 470 32,000  Level Salt Lake Center
11:36PM 43.6294 -107.8681 328° Northwest 408 470 32,000 -720 Level Salt Lake Center
11:37PM 43.7258 -107.9486 329° Northwest 407 468 30,600 -2,220 Descending Salt Lake Center
11:38PM 43.8214 -108.0256 330° Northwest 399 459 27,500 -3,000 Descending Salt Lake Center
11:39PM 43.9147 -108.1053 328° Northwest 395 455 24,500 -3,240 Descending Salt Lake Center
11:40PM 44.0217 -108.1961 329° Northwest 376 433 20,900 -3,240 Descending Salt Lake Center
11:41PM 44.1064 -108.2694 328° Northwest 366 421 17,900 -2,880 Descending Salt Lake Center
11:42PM 44.1894 -108.3394 329° Northwest 358 412 15,100 -2,640 Descending Salt Lake Center
11:43PM 44.2719 -108.4081 329° Northwest 352 405 12,600 -1,680 Descending Salt Lake Center
11:44PM 44.3489 -108.4742 328° Northwest 342 394 11,700 -960 Descending Salt Lake Center
11:45PM 44.4150 -108.5297 329° Northwest 312 359 10,700 -1,020 Descending Salt Lake Center
11:46PM 44.4775 -108.5847 328° Northwest 283 326 9,700 -840 Descending Salt Lake Center
11:47PM 44.5414 -108.6400 328° Northwest 273 314 9,000 -540 Descending Salt Lake Center
11:48PM 44.6028 -108.6956 327° Northwest 268 308 8,600 -540 Descending Salt Lake Center
11:49PM 44.6436 -108.7656 309° West 266 306 8,000 -540 Descending Salt Lake Center
11:50PM 44.6244 -108.8425 251° West 232 267 7,600 -300 Descending Salt Lake Center
11:51PM 44.5878 -108.9064 231° Southwest 220 253 7,400 -840 Descending Salt Lake Center
11:52PM 44.5514 -108.9683 231° Southwest 193 222 6,000 -840 Descending Salt Lake Center
11:53PM 44.5233 -109.0156 230° Southwest 188 216 5,800 -240 Descending Salt Lake Center